Time;durP1;ratioP1;P1;durP2;ratioP2;P2;SDS_P1;SDS_P2;PMS_P1;PMS_P2;Temp;Humidity;BMP_temperature;BMP_pressure;BME280_temperature;BME280_humidity;BME280_pressure;Samples;Min_cycle;Max_cycle;Signal;HPM_P1;HPM_P2
2022/09/12 00:01:15;;;;;;;14.37;13.13;;;11.80;99.90;;;;;;4951767;28;20198;-78
2022/09/12 00:03:42;;;;;;;15.20;13.90;;;11.80;99.90;;;;;;4946062;29;20271;-78
2022/09/12 00:06:12;;;;;;;14.30;13.10;;;11.80;99.90;;;;;;4950623;28;20740;-78
2022/09/12 00:08:39;;;;;;;14.20;13.10;;;11.80;99.90;;;;;;4939065;29;20219;-78
2022/09/12 00:11:08;;;;;;;14.67;13.37;;;11.70;99.90;;;;;;4936321;29;20677;-78
2022/09/12 00:13:35;;;;;;;14.47;12.90;;;11.70;99.90;;;;;;4938743;28;20229;-78
2022/09/12 00:16:03;;;;;;;14.13;13.03;;;11.70;99.90;;;;;;4938534;29;20211;-78
2022/09/12 00:18:31;;;;;;;14.43;13.03;;;11.60;99.90;;;;;;4940044;28;20290;-78
2022/09/12 00:21:03;;;;;;;14.17;12.97;;;11.60;99.90;;;;;;4935789;29;20187;-77
2022/09/12 00:23:30;;;;;;;14.70;13.33;;;11.60;99.90;;;;;;4936272;28;20243;-78
2022/09/12 00:25:57;;;;;;;14.10;13.00;;;11.60;99.90;;;;;;4939877;29;20728;-78
2022/09/12 00:28:23;;;;;;;14.43;13.30;;;11.50;99.90;;;;;;4945739;29;20200;-78
2022/09/12 00:30:50;;;;;;;14.90;13.43;;;11.50;99.90;;;;;;4950498;28;20208;-78
2022/09/12 00:33:18;;;;;;;14.23;12.83;;;11.40;99.90;;;;;;4939771;29;20216;-78
2022/09/12 00:35:48;;;;;;;15.80;14.23;;;11.40;99.90;;;;;;4940038;29;20260;-78
2022/09/12 00:38:15;;;;;;;13.47;12.37;;;11.40;99.90;;;;;;4935026;29;20205;-78
2022/09/12 00:40:43;;;;;;;14.37;13.27;;;11.40;99.90;;;;;;4950274;29;20200;-78
2022/09/12 00:43:14;;;;;;;14.70;13.40;;;11.40;99.90;;;;;;4933955;29;20225;-77
2022/09/12 00:45:41;;;;;;;15.87;14.50;;;11.40;99.90;;;;;;4936666;29;20207;-77
2022/09/12 00:48:17;;;;;;;13.53;12.53;;;11.40;99.90;;;;;;4939679;29;20207;-78
2022/09/12 00:50:43;;;;;;;13.83;12.73;;;11.30;99.90;;;;;;4950549;28;20246;-77
2022/09/12 00:53:11;;;;;;;14.17;13.07;;;11.30;99.90;;;;;;4938025;29;20784;-78
2022/09/12 00:55:41;;;;;;;13.87;12.77;;;11.30;99.90;;;;;;4935204;29;20203;-78
2022/09/12 00:58:12;;;;;;;14.13;13.13;;;11.30;99.90;;;;;;4936158;29;20231;-78
2022/09/12 01:00:39;;;;;;;13.53;12.40;;;11.30;99.90;;;;;;4938214;29;20197;-78
2022/09/12 01:03:09;;;;;;;13.63;12.63;;;11.40;99.90;;;;;;4936762;29;20715;-78
2022/09/12 01:05:43;;;;;;;13.60;12.40;;;11.40;99.90;;;;;;4936685;29;20201;-78
2022/09/12 01:08:09;;;;;;;14.40;13.20;;;11.40;99.90;;;;;;4934085;29;20316;-78
2022/09/12 01:10:39;;;;;;;13.93;12.80;;;11.30;99.90;;;;;;4940837;29;20274;-80
2022/09/12 01:13:09;;;;;;;13.87;12.50;;;11.20;99.90;;;;;;4952368;28;20234;-78
2022/09/12 01:15:37;;;;;;;14.77;13.53;;;11.20;99.90;;;;;;4943306;29;20599;-78
2022/09/12 01:18:13;;;;;;;13.43;12.40;;;11.20;99.90;;;;;;4936510;29;20217;-78
2022/09/12 01:21:09;;;;;;;13.73;12.40;;;11.20;99.90;;;;;;4943636;29;20262;-78
2022/09/12 01:24:14;;;;;;;13.50;12.37;;;11.10;99.90;;;;;;4955021;28;20220;-78
2022/09/12 01:27:23;;;;;;;14.43;13.27;;;11.10;99.90;;;;;;4947398;28;20203;-77
2022/09/12 01:30:19;;;;;;;14.33;13.17;;;11.10;99.90;;;;;;4921687;29;20307;-78
2022/09/12 01:33:08;;;;;;;15.43;14.13;;;11.10;99.90;;;;;;4946680;28;20226;-77
2022/09/12 01:35:45;;;;;;;14.80;13.60;;;11.00;99.90;;;;;;4925999;28;20627;-78
2022/09/12 01:38:22;;;;;;;14.17;12.97;;;11.10;99.90;;;;;;4936140;29;20582;-78
2022/09/12 01:40:57;;;;;;;15.10;13.80;;;11.10;99.90;;;;;;4941367;29;20718;-78
2022/09/12 01:43:33;;;;;;;14.97;13.57;;;11.10;99.90;;;;;;4941496;28;20269;-78
2022/09/12 01:46:07;;;;;;;15.93;14.60;;;11.10;99.90;;;;;;4934262;29;20211;-77
2022/09/12 01:48:41;;;;;;;15.43;14.13;;;11.00;99.90;;;;;;4940455;29;20200;-78
2022/09/12 01:51:15;;;;;;;15.43;13.93;;;11.00;99.90;;;;;;4941678;28;20219;-78
2022/09/12 01:53:46;;;;;;;16.17;14.63;;;11.00;99.90;;;;;;4944713;28;20217;-77
2022/09/12 01:56:20;;;;;;;15.23;13.90;;;11.00;99.90;;;;;;4948031;29;20200;-78
2022/09/12 01:58:52;;;;;;;15.63;14.43;;;11.10;99.90;;;;;;4937195;29;20289;-78
2022/09/12 02:01:23;;;;;;;15.27;14.10;;;11.00;99.90;;;;;;4940431;29;20218;-78
2022/09/12 02:03:57;;;;;;;16.47;14.80;;;11.00;99.90;;;;;;4946819;29;20203;-77
2022/09/12 02:06:29;;;;;;;16.17;14.77;;;10.90;99.90;;;;;;4947943;29;20244;-78
2022/09/12 02:09:01;;;;;;;17.47;16.00;;;10.90;99.90;;;;;;4941076;28;20257;-78
2022/09/12 02:11:30;;;;;;;16.13;14.83;;;10.80;99.90;;;;;;4940306;28;20195;-78
2022/09/12 02:14:01;;;;;;;15.53;14.23;;;10.80;99.90;;;;;;4968902;23;20670;-76
2022/09/12 02:16:33;;;;;;;15.93;14.63;;;10.70;99.90;;;;;;4961048;28;20253;-76
2022/09/12 02:19:09;;;;;;;15.30;14.03;;;10.70;99.90;;;;;;4960385;28;20262;-75
2022/09/12 02:21:39;;;;;;;15.40;14.20;;;10.70;99.90;;;;;;4956806;28;20233;-76
2022/09/12 02:24:10;;;;;;;14.30;13.20;;;10.70;99.90;;;;;;4956881;28;20285;-76
2022/09/12 02:26:43;;;;;;;14.00;13.00;;;10.70;99.90;;;;;;4960818;28;20885;-76
2022/09/12 02:29:10;;;;;;;14.00;13.00;;;10.70;99.90;;;;;;4949122;28;20202;-76
2022/09/12 02:31:44;;;;;;;14.73;13.63;;;10.70;99.90;;;;;;4956514;28;20190;-76
2022/09/12 02:34:26;;;;;;;14.70;13.50;;;10.80;99.90;;;;;;4952480;28;20699;-76
2022/09/12 02:37:02;;;;;;;16.27;14.97;;;10.90;99.90;;;;;;4955495;28;20211;-76
2022/09/12 02:39:29;;;;;;;17.00;15.40;;;11.00;99.90;;;;;;4964014;28;20612;-79
2022/09/12 02:41:58;;;;;;;17.27;15.93;;;11.10;99.90;;;;;;4960681;29;20226;-78
2022/09/12 02:44:28;;;;;;;17.00;15.70;;;11.20;99.90;;;;;;4964516;28;20202;-75
2022/09/12 02:46:58;;;;;;;16.70;15.40;;;11.20;99.90;;;;;;4956752;28;20274;-76
2022/09/12 02:49:26;;;;;;;15.00;13.90;;;11.20;99.90;;;;;;4954908;28;20696;-76
2022/09/12 02:51:53;;;;;;;15.50;14.30;;;11.10;99.90;;;;;;4957969;28;20211;-76
2022/09/12 02:54:21;;;;;;;15.57;14.47;;;11.10;99.90;;;;;;4960143;28;20258;-76
2022/09/12 02:56:48;;;;;;;15.43;14.33;;;11.20;99.90;;;;;;4955190;28;20630;-76
2022/09/12 02:59:18;;;;;;;14.40;13.40;;;11.20;99.90;;;;;;4947501;28;20203;-77
2022/09/12 03:02:09;;;;;;;14.97;13.90;;;11.10;99.90;;;;;;4956900;28;20208;-77
2022/09/12 03:05:13;;;;;;;13.73;12.83;;;11.10;99.90;;;;;;4942915;28;20196;-76
2022/09/12 03:08:11;;;;;;;14.77;13.77;;;11.10;99.90;;;;;;4952363;28;20569;-76
2022/09/12 03:10:51;;;;;;;15.50;14.30;;;11.10;99.90;;;;;;4954387;28;20269;-76
2022/09/12 03:13:23;;;;;;;16.43;15.20;;;11.10;99.90;;;;;;4953909;28;20230;-79
2022/09/12 03:16:03;;;;;;;11.33;10.23;;;11.10;99.90;;;;;;4955725;28;20204;-78
2022/09/12 03:18:42;;;;;;;17.73;16.03;;;11.10;99.90;;;;;;4960564;28;20198;-77
2022/09/12 03:21:17;;;;;;;20.03;18.20;;;11.10;99.90;;;;;;4952415;28;20186;-76
2022/09/12 03:23:53;;;;;;;17.33;15.73;;;11.10;99.90;;;;;;4952781;28;20509;-76
2022/09/12 03:26:26;;;;;;;16.87;15.50;;;11.10;99.90;;;;;;4957751;28;20190;-77
2022/09/12 03:28:55;;;;;;;16.70;15.40;;;11.10;99.90;;;;;;4956897;28;20203;-78
2022/09/12 03:31:22;;;;;;;15.07;14.03;;;11.10;99.90;;;;;;4957465;28;20257;-74
2022/09/12 03:33:49;;;;;;;16.10;14.90;;;11.10;99.90;;;;;;4956583;28;20278;-74
2022/09/12 03:36:22;;;;;;;15.47;14.37;;;11.10;99.90;;;;;;4955341;28;20208;-74
2022/09/12 03:38:49;;;;;;;15.63;14.53;;;11.10;99.90;;;;;;4956479;28;20241;-73
2022/09/12 03:41:15;;;;;;;16.67;15.40;;;11.10;99.90;;;;;;4955379;28;20254;-74
2022/09/12 03:43:43;;;;;;;17.03;15.73;;;11.10;99.90;;;;;;4954827;28;20286;-74
2022/09/12 03:46:10;;;;;;;16.67;15.30;;;11.20;99.90;;;;;;4951607;28;20206;-74
2022/09/12 03:48:37;;;;;;;16.80;15.60;;;11.20;99.90;;;;;;4956475;28;20199;-74
2022/09/12 03:51:06;;;;;;;17.90;16.50;;;11.30;99.90;;;;;;4957467;28;20297;-74
2022/09/12 03:53:35;;;;;;;18.00;16.60;;;11.20;99.90;;;;;;4963433;28;20773;-74
2022/09/12 03:56:06;;;;;;;18.47;16.97;;;11.10;99.90;;;;;;4959139;28;20545;-74
2022/09/12 03:58:35;;;;;;;17.17;15.60;;;11.00;99.90;;;;;;4960121;28;20213;-74
2022/09/12 04:01:06;;;;;;;10.03;9.03;;;11.00;99.90;;;;;;4956593;28;20200;-74
2022/09/12 04:03:33;;;;;;;9.60;8.70;;;10.90;99.90;;;;;;4956109;28;20708;-74
2022/09/12 04:06:00;;;;;;;10.33;9.13;;;10.80;99.90;;;;;;4957945;28;20270;-74
2022/09/12 04:08:27;;;;;;;10.40;9.40;;;10.80;99.90;;;;;;4955886;28;20195;-74
2022/09/12 04:11:02;;;;;;;10.83;9.63;;;10.80;99.90;;;;;;4954936;28;20713;-73
2022/09/12 04:13:29;;;;;;;9.10;8.20;;;10.90;99.90;;;;;;4960771;28;20293;-74
2022/09/12 04:15:57;;;;;;;11.20;10.03;;;10.90;99.90;;;;;;4956898;28;20270;-74
2022/09/12 04:18:24;;;;;;;10.77;9.67;;;11.00;99.90;;;;;;4958578;28;20206;-74
2022/09/12 04:20:50;;;;;;;13.27;11.87;;;11.10;99.90;;;;;;4955472;28;20229;-74
2022/09/12 04:23:17;;;;;;;11.57;10.43;;;11.10;99.90;;;;;;4954550;28;20310;-74
2022/09/12 04:25:44;;;;;;;10.83;9.73;;;11.10;99.90;;;;;;4956068;28;20199;-74
2022/09/12 04:28:12;;;;;;;12.40;11.10;;;11.10;99.90;;;;;;4955095;28;20207;-74
2022/09/12 04:30:39;;;;;;;14.47;12.97;;;11.10;99.90;;;;;;4955038;28;20219;-77
2022/09/12 04:33:06;;;;;;;14.53;13.13;;;11.10;99.90;;;;;;4959687;28;20527;-77
2022/09/12 04:35:35;;;;;;;11.97;10.70;;;11.10;99.90;;;;;;4965050;28;20218;-75
2022/09/12 04:38:01;;;;;;;12.47;11.17;;;11.20;99.90;;;;;;4954135;28;20565;-74
2022/09/12 04:40:30;;;;;;;11.10;10.00;;;11.20;99.90;;;;;;4954762;28;20735;-74
2022/09/12 04:42:57;;;;;;;11.10;10.00;;;11.20;99.90;;;;;;4954263;28;20748;-74
2022/09/12 04:45:25;;;;;;;17.47;16.17;;;11.20;99.90;;;;;;4951621;28;20282;-74
2022/09/12 04:47:52;;;;;;;15.97;14.70;;;11.20;99.90;;;;;;4957893;28;20252;-74
2022/09/12 04:50:19;;;;;;;13.80;12.60;;;11.20;99.90;;;;;;4954314;28;20217;-74
2022/09/12 04:52:49;;;;;;;14.63;13.43;;;11.30;99.90;;;;;;4955687;28;20216;-74
2022/09/12 04:55:16;;;;;;;14.10;12.63;;;11.20;99.90;;;;;;4947733;28;20251;-74
2022/09/12 04:57:43;;;;;;;13.50;12.30;;;11.30;99.90;;;;;;4954560;28;20250;-74
2022/09/12 05:00:13;;;;;;;19.10;17.67;;;11.30;99.90;;;;;;4948326;28;20250;-74
2022/09/12 05:02:42;;;;;;;19.30;17.90;;;11.20;99.90;;;;;;4953486;28;20711;-74
2022/09/12 05:05:10;;;;;;;18.60;17.20;;;11.30;99.90;;;;;;4954029;28;20251;-74
2022/09/12 05:07:37;;;;;;;18.93;17.50;;;11.30;99.90;;;;;;4964370;28;20203;-74
2022/09/12 05:10:04;;;;;;;17.93;16.53;;;11.30;99.90;;;;;;4954021;28;20196;-74
2022/09/12 05:12:31;;;;;;;17.27;16.07;;;11.20;99.90;;;;;;4954743;28;20227;-74
2022/09/12 05:14:58;;;;;;;17.40;16.20;;;11.10;99.90;;;;;;4954475;28;20198;-74
2022/09/12 05:17:25;;;;;;;17.30;15.87;;;11.10;99.90;;;;;;4955134;28;20262;-77
2022/09/12 05:19:53;;;;;;;18.43;16.70;;;11.00;99.90;;;;;;4955614;28;20570;-77
2022/09/12 05:22:19;;;;;;;18.93;17.53;;;11.00;99.90;;;;;;4955956;28;20219;-77
2022/09/12 05:24:47;;;;;;;18.40;17.00;;;11.00;99.90;;;;;;4955588;28;20303;-75
2022/09/12 05:27:14;;;;;;;18.77;17.20;;;11.00;99.90;;;;;;4953965;28;20199;-76
2022/09/12 05:29:41;;;;;;;19.40;17.83;;;11.10;99.90;;;;;;4955661;28;20254;-76
2022/09/12 05:32:09;;;;;;;19.10;17.60;;;11.10;99.90;;;;;;4954470;28;20306;-76
2022/09/12 05:34:36;;;;;;;18.70;17.20;;;11.20;99.90;;;;;;4961204;28;20274;-77
2022/09/12 05:37:04;;;;;;;19.47;17.87;;;11.30;99.90;;;;;;4956749;28;20208;-77
2022/09/12 05:39:31;;;;;;;17.83;16.43;;;11.40;99.90;;;;;;4958178;28;20229;-77
2022/09/12 05:41:58;;;;;;;17.97;16.47;;;11.30;99.90;;;;;;4955908;28;20210;-77
2022/09/12 05:44:25;;;;;;;16.93;15.63;;;11.40;99.90;;;;;;4955774;28;20599;-76
2022/09/12 05:46:52;;;;;;;17.40;16.20;;;11.40;99.90;;;;;;4954535;28;20230;-76
2022/09/12 05:49:20;;;;;;;17.87;16.50;;;11.60;99.90;;;;;;4956852;28;20199;-76
2022/09/12 05:51:47;;;;;;;16.57;15.33;;;11.70;99.90;;;;;;4954024;28;20220;-76
2022/09/12 05:54:18;;;;;;;17.10;15.83;;;11.80;99.90;;;;;;4956539;28;20222;-76
2022/09/12 05:56:45;;;;;;;16.80;15.60;;;12.00;99.90;;;;;;4954599;28;20206;-76
2022/09/12 05:59:13;;;;;;;16.07;14.97;;;12.10;99.90;;;;;;4951955;28;20252;-77
2022/09/12 06:01:40;;;;;;;16.23;14.87;;;12.10;99.90;;;;;;4956391;28;20200;-76
2022/09/12 06:04:08;;;;;;;16.33;15.13;;;12.20;99.90;;;;;;4955646;28;20581;-77
2022/09/12 06:06:37;;;;;;;15.63;14.53;;;12.20;99.90;;;;;;4955910;28;20199;-77
2022/09/12 06:09:05;;;;;;;15.93;14.73;;;12.20;99.90;;;;;;4956666;28;20680;-77
2022/09/12 06:11:36;;;;;;;15.47;14.47;;;12.20;99.90;;;;;;4954704;28;20275;-77
2022/09/12 06:14:03;;;;;;;15.93;14.53;;;12.20;99.90;;;;;;4957029;28;20282;-76
2022/09/12 06:16:31;;;;;;;16.03;14.93;;;12.20;99.90;;;;;;4956214;28;20197;-77
2022/09/12 06:19:00;;;;;;;15.47;14.37;;;12.30;99.90;;;;;;4954496;28;20210;-77
2022/09/12 06:21:29;;;;;;;15.70;14.53;;;12.30;99.90;;;;;;4956153;28;20195;-77
2022/09/12 06:23:57;;;;;;;16.50;15.30;;;12.30;99.90;;;;;;4962539;28;20216;-77
2022/09/12 06:26:25;;;;;;;15.07;14.00;;;12.40;99.90;;;;;;4955396;28;20208;-77
2022/09/12 06:28:54;;;;;;;10.50;9.60;;;12.60;99.90;;;;;;4957040;28;20203;-76
2022/09/12 06:31:24;;;;;;;16.27;15.07;;;12.80;99.90;;;;;;4956721;28;20906;-78
2022/09/12 06:33:53;;;;;;;8.70;7.80;;;13.00;99.90;;;;;;4959005;28;20223;-77
2022/09/12 06:36:23;;;;;;;10.50;9.40;;;13.20;99.90;;;;;;4958294;28;20201;-77
2022/09/12 06:38:55;;;;;;;18.37;16.80;;;13.20;99.90;;;;;;4960987;28;20257;-77
2022/09/12 06:41:22;;;;;;;19.27;17.37;;;13.20;99.90;;;;;;4970107;28;20190;-77
2022/09/12 06:43:48;;;;;;;17.07;15.47;;;13.20;99.90;;;;;;4961871;28;20638;-77
2022/09/12 06:46:17;;;;;;;15.33;13.83;;;13.30;99.90;;;;;;4962168;28;20210;-77
2022/09/12 06:48:45;;;;;;;18.10;16.33;;;13.40;99.90;;;;;;4960430;28;20195;-77
2022/09/12 06:51:13;;;;;;;17.87;16.03;;;13.60;99.90;;;;;;4964279;28;20593;-77
2022/09/12 06:53:43;;;;;;;16.97;15.57;;;13.70;99.90;;;;;;4964906;28;20222;-78
2022/09/12 06:56:11;;;;;;;18.10;16.77;;;13.80;99.90;;;;;;4959697;28;20211;-77
2022/09/12 06:58:38;;;;;;;17.07;15.77;;;13.80;99.90;;;;;;4961368;28;20277;-77
2022/09/12 07:01:07;;;;;;;17.10;15.80;;;13.80;99.90;;;;;;4960524;28;20206;-78
2022/09/12 07:03:36;;;;;;;16.37;15.17;;;14.00;99.90;;;;;;4960144;28;20218;-77
2022/09/12 07:06:05;;;;;;;16.53;15.33;;;14.20;99.90;;;;;;4968605;28;20222;-77
2022/09/12 07:08:32;;;;;;;15.03;13.93;;;14.40;99.90;;;;;;4963683;28;20249;-77
2022/09/12 07:11:01;;;;;;;8.33;7.43;;;14.50;99.90;;;;;;4960431;28;20703;-77
2022/09/12 07:13:28;;;;;;;9.90;9.00;;;14.60;99.90;;;;;;4963048;28;20314;-77
2022/09/12 07:15:55;;;;;;;12.13;11.00;;;14.60;99.90;;;;;;4961217;28;20203;-77
2022/09/12 07:18:31;;;;;;;11.67;10.77;;;14.60;99.90;;;;;;4957907;28;20229;-77
2022/09/12 07:21:01;;;;;;;7.30;6.60;;;14.70;99.90;;;;;;4959395;28;20209;-77
2022/09/12 07:23:28;;;;;;;13.30;12.40;;;14.90;99.90;;;;;;4955979;28;20303;-77
2022/09/12 07:25:56;;;;;;;14.43;13.33;;;14.80;99.90;;;;;;4957797;28;20205;-77
2022/09/12 07:28:23;;;;;;;12.50;11.50;;;14.90;99.90;;;;;;4958338;28;20204;-77
2022/09/12 07:30:52;;;;;;;13.97;12.97;;;15.00;99.90;;;;;;4966713;28;20197;-77
2022/09/12 07:33:20;;;;;;;13.00;12.10;;;15.20;99.90;;;;;;4959425;28;20211;-78
2022/09/12 07:35:46;;;;;;;13.47;12.47;;;15.30;99.90;;;;;;4965049;28;20205;-78
2022/09/12 07:38:14;;;;;;;13.00;12.10;;;15.40;99.90;;;;;;4959767;28;20224;-77
2022/09/12 07:40:41;;;;;;;13.60;12.60;;;15.50;99.90;;;;;;4961104;28;20253;-78
2022/09/12 07:43:08;;;;;;;12.53;11.43;;;15.60;99.90;;;;;;4965069;28;20217;-78
2022/09/12 07:45:35;;;;;;;12.93;11.93;;;15.90;99.90;;;;;;4956133;28;20680;-78
2022/09/12 07:48:02;;;;;;;13.07;12.07;;;16.70;99.90;;;;;;4960059;28;20226;-76
2022/09/12 07:50:29;;;;;;;13.77;12.77;;;17.20;99.90;;;;;;4958732;28;20226;-78
2022/09/12 07:52:56;;;;;;;13.73;12.73;;;17.70;99.90;;;;;;4962299;28;20223;-76
2022/09/12 07:55:24;;;;;;;14.60;13.60;;;18.30;99.90;;;;;;4967153;28;20247;-77
2022/09/12 07:57:51;;;;;;;15.13;13.77;;;18.80;99.90;;;;;;4958470;28;20209;-77
2022/09/12 08:00:19;;;;;;;14.77;13.77;;;19.20;99.90;;;;;;4958648;28;20277;-77
2022/09/12 08:02:50;;;;;;;6.57;5.87;;;19.50;99.90;;;;;;4957187;28;20221;-77
2022/09/12 08:05:17;;;;;;;13.63;12.67;;;19.80;99.90;;;;;;4958868;28;20264;-78
2022/09/12 08:07:44;;;;;;;14.30;13.20;;;20.00;99.90;;;;;;4961410;28;20256;-77
2022/09/12 08:10:10;;;;;;;11.77;10.93;;;20.00;99.90;;;;;;4959076;28;20578;-77
2022/09/12 08:12:39;;;;;;;13.93;12.93;;;20.40;99.90;;;;;;4981212;23;20242;-79
2022/09/12 08:15:07;;;;;;;7.90;7.10;;;20.60;99.90;;;;;;4962426;28;20203;-79
2022/09/12 08:17:34;;;;;;;8.43;7.63;;;20.60;99.90;;;;;;4958165;28;20941;-79
2022/09/12 08:20:01;;;;;;;8.93;8.13;;;20.60;99.90;;;;;;4959744;28;20210;-79
2022/09/12 08:22:30;;;;;;;14.47;13.47;;;20.30;99.90;;;;;;4959076;28;20223;-79
2022/09/12 08:24:57;;;;;;;11.30;10.27;;;20.40;99.90;;;;;;4949301;28;20215;-80
2022/09/12 08:27:24;;;;;;;11.67;10.77;;;20.90;99.90;;;;;;4959108;28;20281;-79
2022/09/12 08:29:52;;;;;;;7.47;6.77;;;21.10;99.90;;;;;;4956074;28;20214;-80
2022/09/12 08:32:19;;;;;;;9.67;8.87;;;21.20;99.90;;;;;;4957630;28;20226;-80
2022/09/12 08:34:46;;;;;;;10.23;9.37;;;21.40;99.90;;;;;;4959060;28;20203;-80
2022/09/12 08:37:12;;;;;;;8.57;7.87;;;21.40;99.90;;;;;;4951901;28;20217;-80
2022/09/12 08:39:39;;;;;;;12.30;11.30;;;21.60;99.90;;;;;;4955918;28;20261;-80
2022/09/12 08:42:07;;;;;;;6.50;5.90;;;21.60;99.90;;;;;;4958208;28;20198;-79
2022/09/12 08:44:54;;;;;;;6.93;6.07;;;21.60;99.90;;;;;;4953239;28;20222;-80
2022/09/12 08:47:27;;;;;;;11.33;10.53;;;22.10;99.90;;;;;;4953755;28;20191;-79
2022/09/12 08:50:00;;;;;;;11.90;11.10;;;22.20;99.90;;;;;;4957710;28;20199;-81
2022/09/12 08:52:30;;;;;;;13.47;12.47;;;22.40;99.90;;;;;;4961719;28;20781;-80
2022/09/12 08:54:57;;;;;;;7.83;7.20;;;22.40;99.90;;;;;;4957833;28;20199;-80
2022/09/12 08:57:24;;;;;;;13.80;12.70;;;22.50;99.90;;;;;;4950506;28;20282;-80
2022/09/12 08:59:53;;;;;;;6.43;5.93;;;22.70;99.90;;;;;;4956167;28;20265;-80
2022/09/12 09:02:42;;;;;;;12.80;11.77;;;23.00;99.90;;;;;;4957938;28;20189;-80
2022/09/12 09:05:19;;;;;;;9.10;8.30;;;23.10;99.90;;;;;;4955689;28;20201;-80
2022/09/12 09:08:14;;;;;;;11.07;10.17;;;22.80;99.90;;;;;;4946349;28;20198;-80
2022/09/12 09:10:49;;;;;;;12.20;11.40;;;22.90;99.90;;;;;;4955919;28;20210;-80
2022/09/12 09:16:22;;;;;;;11.57;10.77;;;23.20;99.90;;;;;;4953071;28;20283;-79
2022/09/12 09:18:51;;;;;;;11.10;10.20;;;23.70;99.90;;;;;;4961129;28;20249;-78
2022/09/12 09:21:24;;;;;;;9.97;9.20;;;24.00;99.90;;;;;;4961502;28;20266;-79
2022/09/12 09:23:58;;;;;;;9.30;8.67;;;24.10;99.90;;;;;;4954290;28;20230;-79
2022/09/12 09:26:31;;;;;;;10.47;9.67;;;24.00;99.90;;;;;;4952341;28;20672;-79
2022/09/12 09:29:03;;;;;;;10.00;9.40;;;24.40;99.90;;;;;;4956582;28;20199;-78
2022/09/12 09:31:37;;;;;;;11.90;11.10;;;24.70;99.90;;;;;;4957389;28;20238;-78
2022/09/12 09:34:13;;;;;;;12.10;11.30;;;24.30;99.90;;;;;;4953705;28;20229;-79
2022/09/12 09:36:48;;;;;;;10.07;9.40;;;24.50;99.90;;;;;;4956183;28;20226;-78
2022/09/12 09:39:24;;;;;;;10.40;9.70;;;24.80;99.90;;;;;;4949282;28;20197;-78
2022/09/12 09:42:11;;;;;;;10.47;9.67;;;24.80;99.90;;;;;;4954219;28;20206;-79
2022/09/12 09:44:38;;;;;;;9.93;9.13;;;24.50;99.90;;;;;;4956333;28;20226;-77
2022/09/12 09:47:10;;;;;;;8.77;8.17;;;24.30;99.90;;;;;;4954454;28;20195;-78
2022/09/12 09:49:37;;;;;;;8.20;7.47;;;23.80;99.90;;;;;;4949789;28;20198;-78
2022/09/12 09:52:06;;;;;;;7.73;7.13;;;23.80;99.90;;;;;;4957258;28;20336;-78
2022/09/12 09:54:37;;;;;;;8.67;8.17;;;23.70;99.90;;;;;;4955939;28;20795;-79
2022/09/12 09:57:05;;;;;;;9.77;9.17;;;23.80;99.90;;;;;;4955503;28;20238;-78
2022/09/12 09:59:33;;;;;;;9.33;8.73;;;23.80;99.90;;;;;;4952428;28;20194;-78
2022/09/12 10:02:03;;;;;;;9.37;8.77;;;23.70;99.90;;;;;;4957028;28;20206;-79
2022/09/12 10:04:34;;;;;;;9.20;8.60;;;23.50;99.90;;;;;;4961797;28;20707;-80
2022/09/12 10:07:03;;;;;;;9.13;8.53;;;23.50;99.90;;;;;;4954727;28;20744;-79
2022/09/12 10:09:31;;;;;;;9.03;8.50;;;23.40;99.90;;;;;;4958899;28;20197;-78
2022/09/12 10:12:00;;;;;;;9.23;8.57;;;23.50;99.90;;;;;;4961376;28;20594;-78
2022/09/12 10:14:31;;;;;;;8.70;8.10;;;23.60;99.90;;;;;;4959595;28;20317;-79
2022/09/12 10:16:58;;;;;;;9.30;8.70;;;23.80;99.90;;;;;;4956875;28;20634;-78
2022/09/12 10:19:36;;;;;;;8.67;8.13;;;23.60;99.90;;;;;;4963129;28;20286;-78
2022/09/12 10:22:04;;;;;;;9.17;8.47;;;23.50;99.90;;;;;;4960951;28;20255;-79
2022/09/12 10:24:36;;;;;;;8.93;8.33;;;23.40;99.90;;;;;;4965148;28;20218;-79
2022/09/12 10:27:15;;;;;;;7.57;7.07;;;23.40;99.90;;;;;;4955807;28;20203;-79
2022/09/12 10:29:47;;;;;;;6.00;5.60;;;23.30;99.90;;;;;;4957642;28;20668;-79
2022/09/12 10:32:22;;;;;;;9.17;8.57;;;23.40;99.90;;;;;;4956427;28;20451;-79
2022/09/12 10:34:54;;;;;;;8.13;7.60;;;23.40;99.90;;;;;;4955905;28;21218;-78
2022/09/12 10:37:26;;;;;;;8.33;7.83;;;23.30;99.90;;;;;;4957337;28;20202;-79
2022/09/12 10:39:55;;;;;;;8.00;7.50;;;23.30;99.90;;;;;;4956877;28;20695;-79
2022/09/12 10:42:42;;;;;;;6.77;6.23;;;23.30;99.90;;;;;;4957616;28;20199;-79
2022/09/12 10:45:19;;;;;;;6.97;6.47;;;23.30;99.90;;;;;;4966336;28;20669;-79
2022/09/12 10:47:46;;;;;;;6.77;6.27;;;23.20;99.90;;;;;;4961634;28;20281;-79
2022/09/12 10:50:29;;;;;;;6.90;6.33;;;23.20;99.90;;;;;;4956507;28;20225;-78
2022/09/12 10:53:14;;;;;;;7.70;7.10;;;23.20;99.90;;;;;;4958274;28;20226;-78
2022/09/12 10:55:52;;;;;;;8.53;7.73;;;23.20;99.90;;;;;;4974118;28;20206;-79
2022/09/12 10:58:34;;;;;;;8.37;7.77;;;23.10;99.90;;;;;;4951791;28;20250;-78
2022/09/12 11:01:09;;;;;;;8.17;7.57;;;23.10;99.90;;;;;;4958083;28;20750;-78
2022/09/12 11:04:00;;;;;;;7.70;7.20;;;23.20;99.90;;;;;;4963685;28;20217;-79
2022/09/12 11:06:36;;;;;;;7.17;6.67;;;23.30;99.90;;;;;;4952514;28;20195;-78
2022/09/12 11:09:10;;;;;;;7.43;6.93;;;23.50;99.90;;;;;;4957518;28;20682;-78
2022/09/12 11:11:50;;;;;;;7.50;6.90;;;23.50;99.90;;;;;;4957817;28;20257;-78
2022/09/12 11:14:41;;;;;;;6.93;6.50;;;23.10;99.90;;;;;;4954491;28;20221;-78
2022/09/12 11:17:22;;;;;;;7.90;7.40;;;22.90;99.90;;;;;;4957791;28;20604;-78
2022/09/12 11:20:07;;;;;;;8.20;7.70;;;23.10;99.90;;;;;;4956632;28;20254;-78
2022/09/12 11:22:51;;;;;;;9.00;8.20;;;23.10;99.90;;;;;;4961936;28;20245;-78
2022/09/12 11:25:30;;;;;;;7.83;7.33;;;23.20;99.90;;;;;;4956052;28;20261;-79
2022/09/12 11:28:18;;;;;;;7.37;6.97;;;23.30;99.90;;;;;;4956748;28;20580;-78
2022/09/12 11:30:54;;;;;;;7.43;6.93;;;23.30;99.90;;;;;;4957195;28;20352;-77
2022/09/12 11:33:37;;;;;;;7.43;7.00;;;23.30;99.90;;;;;;4958588;28;20218;-78
2022/09/12 11:36:12;;;;;;;6.87;6.47;;;23.30;99.90;;;;;;4957792;28;20250;-78
2022/09/12 11:38:51;;;;;;;6.77;6.30;;;23.30;99.90;;;;;;4963396;28;20202;-78
2022/09/12 11:41:24;;;;;;;6.40;5.93;;;23.30;99.90;;;;;;4955113;28;20253;-79
2022/09/12 11:43:55;;;;;;;5.90;5.50;;;23.30;99.90;;;;;;4954171;28;20227;-79
2022/09/12 11:46:27;;;;;;;6.10;5.70;;;23.30;99.90;;;;;;4956652;28;20226;-78
2022/09/12 11:48:59;;;;;;;5.40;5.10;;;23.20;99.90;;;;;;4954560;28;20203;-80
2022/09/12 11:51:29;;;;;;;6.27;5.87;;;23.10;99.90;;;;;;4940279;28;20199;-78
2022/09/12 11:54:13;;;;;;;6.80;6.40;;;23.10;99.90;;;;;;4958416;28;20226;-78
2022/09/12 11:56:45;;;;;;;8.07;7.57;;;23.00;99.90;;;;;;4955609;28;20206;-79
2022/09/12 11:59:17;;;;;;;7.83;7.33;;;23.10;99.90;;;;;;4953479;28;20254;-78
2022/09/12 12:01:46;;;;;;;7.77;7.27;;;23.20;99.90;;;;;;4961402;28;20250;-78
2022/09/12 12:04:17;;;;;;;8.10;7.40;;;23.30;99.90;;;;;;4953921;28;20219;-79
2022/09/12 12:06:51;;;;;;;8.07;7.57;;;23.30;99.90;;;;;;4958655;28;20222;-79
2022/09/12 12:09:19;;;;;;;4.95;4.65;;;23.30;99.90;;;;;;4949506;28;20469;-79
2022/09/12 12:11:52;;;;;;;6.70;6.30;;;23.20;99.90;;;;;;4958662;28;20206;-78
2022/09/12 12:14:22;;;;;;;5.03;4.73;;;23.30;99.90;;;;;;4955985;28;20227;-78
2022/09/12 12:16:50;;;;;;;5.60;5.20;;;23.10;99.90;;;;;;4959740;28;20226;-78
2022/09/12 12:19:33;;;;;;;5.37;5.07;;;23.10;99.90;;;;;;4956582;28;20199;-78
2022/09/12 12:22:08;;;;;;;6.37;5.77;;;23.20;99.90;;;;;;4957566;28;20209;-79
2022/09/12 12:24:54;;;;;;;7.03;6.60;;;23.10;99.90;;;;;;4962655;28;20225;-78
2022/09/12 12:27:45;;;;;;;6.77;6.37;;;23.00;99.90;;;;;;4951649;29;20246;-79
2022/09/12 12:31:00;;;;;;;8.00;7.40;;;23.00;99.90;;;;;;4955992;28;20618;-78
2022/09/12 12:33:53;;;;;;;7.80;7.40;;;23.00;99.90;;;;;;4954925;28;20720;-78
2022/09/12 12:36:39;;;;;;;7.07;6.67;;;23.00;99.90;;;;;;4951091;28;20207;-79
2022/09/12 12:39:48;;;;;;;7.30;6.70;;;23.10;99.90;;;;;;4962986;28;20190;-78
2022/09/12 12:43:03;;;;;;;6.97;6.47;;;23.20;99.90;;;;;;4947727;28;20686;-79
2022/09/12 12:46:01;;;;;;;7.10;6.70;;;23.20;99.90;;;;;;4953224;28;20570;-78
2022/09/12 12:48:34;;;;;;;6.53;6.13;;;23.30;99.90;;;;;;4951800;28;20194;-79
2022/09/12 12:51:29;;;;;;;7.20;6.80;;;23.20;99.90;;;;;;4957659;28;20210;-79
2022/09/12 12:53:56;;;;;;;6.90;6.50;;;23.30;99.90;;;;;;4957395;28;20230;-79
2022/09/12 12:56:39;;;;;;;7.60;7.10;;;23.30;99.90;;;;;;4963034;28;20270;-78
2022/09/12 12:59:17;;;;;;;7.17;6.70;;;23.30;99.90;;;;;;4956115;28;20202;-79
2022/09/12 13:01:55;;;;;;;7.10;6.70;;;23.20;99.90;;;;;;4962354;28;20206;-78